Time;durP1;ratioP1;P1;durP2;ratioP2;P2;SDS_P1;SDS_P2;PMS_P1;PMS_P2;Temp;Humidity;BMP_temperature;BMP_pressure;BME280_temperature;BME280_humidity;BME280_pressure;Samples;Min_cycle;Max_cycle;Signal;HPM_P1;HPM_P2
2022/12/25 00:00:06;;;;;;;19.40;9.50;;;;;;;6.09;74.34;99314.34;24477;1326;3028456;-62
2022/12/25 00:02:38;;;;;;;19.30;10.00;;;;;;;5.90;74.90;99316.38;24523;1332;3052747;-62
2022/12/25 00:05:07;;;;;;;17.90;9.60;;;;;;;5.81;75.58;99318.98;24458;1332;3026326;-64
2022/12/25 00:07:36;;;;;;;16.40;8.80;;;;;;;5.67;76.11;99318.20;24504;1325;3050905;-62
2022/12/25 00:10:06;;;;;;;18.40;9.20;;;;;;;5.50;76.71;99319.62;24487;1326;3028626;-63
2022/12/25 00:12:35;;;;;;;18.40;9.50;;;;;;;5.45;77.15;99314.80;24484;1333;3052952;-62
2022/12/25 00:15:06;;;;;;;19.30;9.60;;;;;;;5.46;77.10;99309.71;24464;1323;3028114;-65
2022/12/25 00:17:35;;;;;;;15.60;8.80;;;;;;;5.44;77.30;99315.38;24474;1332;3025736;-64
2022/12/25 00:20:04;;;;;;;17.40;9.30;;;;;;;5.36;77.55;99317.09;24507;1321;3027631;-65
2022/12/25 00:22:35;;;;;;;17.60;9.90;;;;;;;5.30;77.97;99315.41;24507;1333;3052334;-62
2022/12/25 00:25:04;;;;;;;14.30;6.90;;;;;;;5.37;78.03;99314.27;24496;1332;3028798;-63
2022/12/25 00:27:33;;;;;;;11.60;6.10;;;;;;;5.94;76.48;99311.84;24430;1332;3052251;-64
2022/12/25 00:30:06;;;;;;;16.50;8.50;;;;;;;6.53;74.16;99314.23;24438;1326;3026251;-63
2022/12/25 00:32:36;;;;;;;18.30;8.70;;;;;;;6.67;73.41;99316.02;24523;1332;3026171;-63
2022/12/25 00:35:05;;;;;;;19.50;9.90;;;;;;;6.43;73.44;99310.89;24443;1331;3028656;-63
2022/12/25 00:37:34;;;;;;;21.10;10.30;;;;;;;6.43;74.07;99310.52;24476;1338;3051506;-63
2022/12/25 00:40:04;;;;;;;17.50;9.50;;;;;;;6.22;74.24;99307.31;24452;1324;3026477;-64
2022/12/25 00:42:33;;;;;;;19.90;10.40;;;;;;;6.06;74.68;99304.55;24460;1340;3053027;-64
2022/12/25 00:45:04;;;;;;;23.80;10.70;;;;;;;5.92;75.23;99301.83;24486;1326;3028430;-64
2022/12/25 00:47:33;;;;;;;17.90;10.00;;;;;;;5.76;75.78;99303.74;24505;1325;3052637;-62
2022/12/25 00:50:03;;;;;;;20.10;10.50;;;;;;;5.56;76.44;99296.09;24527;1332;3026172;-63
2022/12/25 00:52:33;;;;;;;19.20;9.90;;;;;;;5.49;76.89;99296.04;24515;1334;3056698;-63
2022/12/25 00:55:02;;;;;;;20.00;9.60;;;;;;;5.31;77.58;99299.40;24505;1332;3026461;-63
2022/12/25 00:57:32;;;;;;;24.50;10.50;;;;;;;5.29;77.82;99301.75;24498;1332;3048705;-62
2022/12/25 01:00:01;;;;;;;20.50;9.90;;;;;;;5.20;77.71;99300.00;24486;1325;3027180;-63
2022/12/25 01:02:30;;;;;;;19.90;9.20;;;;;;;5.10;77.92;99299.58;24530;1324;3028154;-63
2022/12/25 01:05:01;;;;;;;19.00;9.90;;;;;;;5.05;78.42;99296.65;24481;1332;3050016;-63
2022/12/25 01:07:32;;;;;;;21.70;7.20;;;;;;;4.93;79.39;99297.28;24503;1332;3026815;-61
2022/12/25 01:12:50;;;;;;;15.50;7.60;;;;;;;6.15;75.73;99294.61;24466;1339;3053452;-65
2022/12/25 01:15:19;;;;;;;21.80;8.50;;;;;;;6.32;75.13;99299.36;24459;1333;3026308;-64
2022/12/25 01:17:48;;;;;;;14.50;8.20;;;;;;;6.11;74.90;99301.87;24504;1333;3026957;-65
2022/12/25 01:20:17;;;;;;;18.50;8.60;;;;;;;5.96;75.49;99305.31;24467;1331;3028405;-63
2022/12/25 01:22:46;;;;;;;21.20;10.00;;;;;;;5.90;75.93;99304.87;24498;1333;3050743;-63
2022/12/25 01:25:15;;;;;;;16.30;8.70;;;;;;;5.77;76.27;99304.95;24475;1331;3028655;-64
2022/12/25 01:27:44;;;;;;;19.90;10.30;;;;;;;5.64;76.47;99304.94;24530;1332;3052541;-61
2022/12/25 01:30:13;;;;;;;17.60;10.20;;;;;;;5.55;76.99;99301.84;24454;1325;3025968;-64
2022/12/25 01:32:42;;;;;;;18.80;10.10;;;;;;;5.49;77.26;99300.17;24506;1326;3051703;-63
2022/12/25 01:35:11;;;;;;;20.20;10.20;;;;;;;5.41;77.85;99300.17;24484;1322;3028393;-64
2022/12/25 01:37:40;;;;;;;21.20;9.90;;;;;;;5.38;78.18;99295.45;24530;1325;3055743;-64
2022/12/25 01:40:09;;;;;;;19.00;10.20;;;;;;;5.37;78.42;99298.46;24464;1333;3026477;-63
2022/12/25 01:42:39;;;;;;;14.60;7.00;;;;;;;5.32;78.66;99301.45;24484;1332;3049991;-63
2022/12/25 01:45:23;;;;;;;12.40;6.50;;;;;;;5.84;77.96;99299.58;24548;1326;3025859;-63
2022/12/25 01:47:52;;;;;;;11.90;7.40;;;;;;;6.44;75.41;99295.36;24466;1332;3069859;-65
2022/12/25 01:50:22;;;;;;;17.10;9.80;;;;;;;6.47;74.97;99297.48;24479;1331;3028244;-63
2022/12/25 01:52:51;;;;;;;17.10;8.60;;;;;;;6.32;75.02;99302.50;24437;1325;3029049;-62
2022/12/25 01:55:20;;;;;;;18.00;10.10;;;;;;;6.09;75.66;99301.13;24488;1326;3068212;-65
2022/12/25 01:57:49;;;;;;;21.00;10.20;;;;;;;5.94;76.24;99302.08;24445;1333;3025754;-65
2022/12/25 02:00:21;;;;;;;23.40;12.00;;;;;;;5.79;76.80;99307.08;24436;1334;3048930;-63
2022/12/25 02:02:50;;;;;;;18.80;9.50;;;;;;;5.71;77.34;99309.87;24523;1325;3028735;-63
2022/12/25 02:05:29;;;;;;;22.70;10.40;;;;;;;5.67;76.96;99309.17;24468;1325;3052474;-61
2022/12/25 02:08:01;;;;;;;19.30;10.40;;;;;;;5.40;78.08;99313.24;24535;1332;3049150;-63
2022/12/25 02:10:31;;;;;;;20.00;9.90;;;;;;;5.37;78.64;99313.39;24473;1339;3027185;-62
2022/12/25 02:13:01;;;;;;;21.00;10.50;;;;;;;5.34;78.95;99314.56;24481;1331;3026010;-63
2022/12/25 02:15:53;;;;;;;19.50;10.90;;;;;;;5.27;79.38;99315.70;24472;1325;3028675;-63
2022/12/25 02:18:41;;;;;;;19.10;9.80;;;;;;;5.21;80.05;99317.16;24451;1333;3068972;-64
2022/12/25 02:21:17;;;;;;;15.20;6.60;;;;;;;5.24;80.11;99316.36;24502;1332;3049948;-63
2022/12/25 02:24:06;;;;;;;10.00;5.90;;;;;;;5.90;78.48;99314.42;24546;1332;3056749;-62
2022/12/25 02:26:47;;;;;;;15.00;7.70;;;;;;;6.46;76.23;99311.45;24481;1332;3052848;-64
2022/12/25 02:29:22;;;;;;;15.40;7.90;;;;;;;6.45;75.24;99315.48;24526;1332;3051643;-63
2022/12/25 02:32:01;;;;;;;16.10;8.40;;;;;;;6.09;75.83;99315.88;24456;1326;3051482;-63
2022/12/25 02:34:35;;;;;;;16.40;8.10;;;;;;;5.97;76.62;99320.91;24461;1332;3052304;-64
2022/12/25 02:37:06;;;;;;;17.60;9.40;;;;;;;5.85;76.97;99320.21;24464;1339;3028090;-63
2022/12/25 02:39:57;;;;;;;18.60;9.30;;;;;;;5.70;77.38;99320.32;24450;1332;3028331;-64
2022/12/25 03:11:29;;;;;;;14.30;7.90;;;;;;;6.59;75.21;99327.77;24463;1333;3056912;-62
2022/12/25 03:11:57;;;;;;;16.80;9.80;;;;;;;6.43;75.60;99326.02;24469;1332;3052475;-62
2022/12/25 03:17:14;;;;;;;18.00;9.40;;;;;;;6.06;76.95;99326.48;24503;1329;3050983;-63
2022/12/25 03:28:09;;;;;;;16.20;8.90;;;;;;;5.55;79.29;99335.23;24464;1333;3051668;-63
2022/12/25 03:35:21;;;;;;;16.30;9.10;;;;;;;5.42;79.56;99337.52;24457;1325;3067902;-63
2022/12/25 03:36:44;;;;;;;19.20;9.70;;;;;;;5.32;80.19;99337.73;24498;1333;3051057;-63
2022/12/25 04:36:11;;;;;;;25.40;11.20;;;;;;;6.03;76.37;99366.05;24463;1333;3052967;-64
2022/12/25 04:38:40;;;;;;;26.80;12.30;;;;;;;5.86;77.10;99362.94;24538;1326;3028167;-63
2022/12/25 04:41:10;;;;;;;28.00;13.80;;;;;;;5.68;77.61;99366.65;24515;1332;3051127;-62
2022/12/25 04:43:39;;;;;;;30.50;13.70;;;;;;;5.56;78.30;99371.85;24470;1332;3028218;-62
2022/12/25 04:46:08;;;;;;;30.40;13.40;;;;;;;5.49;78.47;99368.33;24542;1326;3028588;-63
2022/12/25 04:48:38;;;;;;;28.10;13.10;;;;;;;5.43;78.74;99377.24;24511;1326;3051498;-65
2022/12/25 04:51:10;;;;;;;28.00;13.50;;;;;;;5.34;79.17;99378.32;24460;1329;3025721;-63
2022/12/25 04:53:40;;;;;;;25.80;12.90;;;;;;;5.25;80.18;99385.43;24542;1332;3052202;-64
2022/12/25 04:56:11;;;;;;;29.70;13.60;;;;;;;5.22;80.40;99389.71;24495;1333;3026486;-64
2022/12/25 04:58:40;;;;;;;21.30;9.10;;;;;;;5.23;80.70;99388.27;24547;1332;3052390;-62
2022/12/25 05:01:09;;;;;;;17.40;8.60;;;;;;;5.77;79.09;99385.56;24478;1332;3028007;-62
2022/12/25 05:03:39;;;;;;;22.90;10.30;;;;;;;6.35;76.74;99389.88;24497;1339;3055879;-63
2022/12/25 05:06:08;;;;;;;26.60;11.10;;;;;;;6.46;75.72;99392.36;24513;1333;3028198;-64
2022/12/25 05:08:37;;;;;;;30.30;13.00;;;;;;;6.40;75.75;99389.83;24457;1325;3051516;-62
2022/12/25 05:11:08;;;;;;;27.80;12.90;;;;;;;6.20;75.80;99392.61;24521;1319;3028017;-64
2022/12/25 05:13:37;;;;;;;27.70;12.20;;;;;;;6.01;76.14;99396.38;24515;1332;3026069;-63
2022/12/25 05:16:12;;;;;;;25.00;12.30;;;;;;;5.85;76.53;99406.94;24524;1331;3029033;-62
2022/12/25 05:18:41;;;;;;;31.10;13.30;;;;;;;5.71;77.07;99404.23;24477;1332;3056354;-62
2022/12/25 05:21:10;;;;;;;28.30;12.70;;;;;;;5.59;78.01;99406.64;24548;1325;3025457;-66
2022/12/25 05:23:47;;;;;;;27.40;12.50;;;;;;;5.44;78.19;99409.17;24450;1325;3049651;-66
2022/12/25 05:26:18;;;;;;;30.50;13.00;;;;;;;5.44;78.62;99412.30;24492;1333;3057586;-64
2022/12/25 05:28:47;;;;;;;26.60;12.90;;;;;;;5.35;78.65;99416.10;24551;1329;3025926;-63
2022/12/25 05:31:16;;;;;;;29.10;13.40;;;;;;;5.32;78.87;99417.48;24553;1326;3027279;-62
2022/12/25 05:33:48;;;;;;;27.80;13.00;;;;;;;5.21;79.18;99417.88;24477;1333;3056425;-61
2022/12/25 05:36:18;;;;;;;28.80;12.80;;;;;;;5.18;79.57;99420.45;24487;1323;3028045;-63
2022/12/25 05:38:47;;;;;;;21.10;9.40;;;;;;;5.16;79.53;99421.38;24500;1327;3024857;-63
2022/12/25 05:41:16;;;;;;;18.70;8.90;;;;;;;5.69;78.20;99418.04;24506;1325;3028085;-62
2022/12/25 05:43:45;;;;;;;28.60;11.50;;;;;;;6.25;75.85;99417.83;24483;1329;3052301;-63
2022/12/25 05:46:15;;;;;;;23.80;11.80;;;;;;;6.38;75.30;99418.98;24460;1338;3026695;-62
2022/12/25 05:48:44;;;;;;;24.80;12.10;;;;;;;6.29;75.36;99415.17;24516;1332;3028817;-64
2022/12/25 05:51:13;;;;;;;28.60;13.50;;;;;;;6.15;75.59;99418.92;24486;1332;3052762;-66
2022/12/25 05:53:42;;;;;;;30.50;12.40;;;;;;;5.98;76.11;99418.42;24497;1333;3028328;-63
2022/12/25 05:56:11;;;;;;;28.30;12.10;;;;;;;5.92;76.61;99423.39;24489;1321;3026361;-65
2022/12/25 05:58:41;;;;;;;26.30;12.70;;;;;;;5.78;76.94;99424.44;24571;1333;3052355;-65
2022/12/25 06:01:12;;;;;;;29.50;13.10;;;;;;;5.70;77.09;99426.35;24485;1321;3026415;-63
2022/12/25 06:03:41;;;;;;;31.60;13.80;;;;;;;5.61;77.32;99431.07;24484;1338;3056020;-64
2022/12/25 06:06:13;;;;;;;30.60;14.20;;;;;;;5.49;78.04;99431.40;24523;1326;3028161;-63
2022/12/25 06:08:42;;;;;;;33.90;14.00;;;;;;;5.43;78.30;99429.88;24499;1341;3050110;-62
2022/12/25 06:11:11;;;;;;;32.30;13.50;;;;;;;5.38;78.55;99423.46;24524;1325;3026942;-64
2022/12/25 06:13:41;;;;;;;35.60;14.40;;;;;;;5.31;78.88;99425.65;24488;1332;3028727;-65
2022/12/25 06:16:10;;;;;;;33.70;15.00;;;;;;;5.29;79.05;99422.11;24519;1329;3028977;-63
2022/12/25 06:18:41;;;;;;;22.90;9.80;;;;;;;5.24;79.32;99428.17;24461;1333;3056746;-63
2022/12/25 06:21:11;;;;;;;21.50;10.00;;;;;;;5.70;78.46;99424.42;24532;1332;3026545;-63
2022/12/25 06:23:41;;;;;;;26.50;12.30;;;;;;;6.33;76.43;99422.89;24515;1332;3028286;-65
2022/12/25 06:26:11;;;;;;;24.90;12.70;;;;;;;6.44;75.34;99421.70;24496;1328;3028126;-63
2022/12/25 06:28:41;;;;;;;28.70;13.50;;;;;;;6.38;75.50;99421.06;24522;1333;3027208;-61
2022/12/25 06:31:15;;;;;;;26.30;12.60;;;;;;;6.22;75.75;99420.71;24559;1339;3028806;-62
2022/12/25 06:33:44;;;;;;;26.20;12.70;;;;;;;6.06;76.47;99424.71;24538;1333;3067636;-63
2022/12/25 06:36:14;;;;;;;32.10;13.80;;;;;;;5.97;77.04;99423.87;24510;1333;3026373;-63
2022/12/25 06:38:44;;;;;;;34.80;16.30;;;;;;;5.85;76.89;99423.30;24556;1332;3024955;-64
2022/12/25 06:41:15;;;;;;;36.10;16.40;;;;;;;5.69;77.57;99425.54;24471;1325;3028152;-61
2022/12/25 06:43:52;;;;;;;35.60;17.00;;;;;;;5.60;78.30;99430.25;24549;1339;3049773;-63
2022/12/25 06:46:21;;;;;;;38.60;16.90;;;;;;;5.55;78.47;99434.60;24477;1332;3055145;-63
2022/12/25 06:48:51;;;;;;;36.10;18.10;;;;;;;5.50;78.62;99437.39;24483;1332;3026725;-62
2022/12/25 06:51:22;;;;;;;41.30;18.20;;;;;;;5.47;78.76;99439.96;24555;1332;3025807;-62
2022/12/25 06:53:51;;;;;;;44.60;18.00;;;;;;;5.41;79.12;99437.95;24512;1339;3056135;-63
2022/12/25 06:56:22;;;;;;;30.00;12.10;;;;;;;5.36;79.44;99440.05;24524;1332;3026168;-63
2022/12/25 06:58:56;;;;;;;29.60;12.10;;;;;;;5.90;78.18;99442.05;24515;1331;3026676;-64
2022/12/25 07:01:37;;;;;;;;;;;;;;;6.44;75.79;99442.21;24465;1326;3051519;-65
2022/12/25 07:04:10;;;;;;;28.40;13.00;;;;;;;6.53;75.14;99451.05;24523;1339;3053126;-64
2022/12/25 07:06:40;;;;;;;34.80;15.20;;;;;;;6.46;75.13;99447.52;24460;1336;3049096;-62
2022/12/25 07:09:09;;;;;;;37.40;15.30;;;;;;;6.29;75.66;99448.95;24490;1324;3028069;-63
2022/12/25 07:11:38;;;;;;;39.90;16.20;;;;;;;6.05;76.05;99449.60;24507;1325;3053197;-63
2022/12/25 07:14:19;;;;;;;32.60;14.50;;;;;;;5.95;76.64;99447.75;24462;1339;3026210;-62
2022/12/25 07:16:48;;;;;;;38.90;16.90;;;;;;;5.81;76.95;99448.84;24538;1331;3068403;-65
2022/12/25 07:19:18;;;;;;;36.70;17.30;;;;;;;5.69;77.43;99456.27;24465;1333;3028958;-65
2022/12/25 07:21:48;;;;;;;40.60;17.50;;;;;;;5.64;77.97;99454.06;24550;1326;3026729;-64
2022/12/25 07:24:19;;;;;;;34.90;15.80;;;;;;;5.52;78.41;99449.68;24467;1325;3029320;-64
2022/12/25 07:26:49;;;;;;;32.50;14.70;;;;;;;5.49;78.67;99456.20;24538;1333;3025902;-62
2022/12/25 07:29:19;;;;;;;39.40;16.00;;;;;;;5.46;78.62;99459.45;24498;1332;3025641;-65
2022/12/25 07:31:48;;;;;;;38.10;16.00;;;;;;;5.43;79.01;99462.90;24514;1331;3028380;-64
2022/12/25 07:34:17;;;;;;;39.50;15.90;;;;;;;5.42;79.11;99461.70;24459;1331;3052735;-62
2022/12/25 07:36:46;;;;;;;28.30;11.30;;;;;;;5.40;79.39;99466.64;24504;1325;3029169;-64
2022/12/25 07:39:15;;;;;;;31.30;10.90;;;;;;;5.93;78.02;99470.77;24456;1329;3052658;-64
2022/12/25 07:41:44;;;;;;;34.40;14.00;;;;;;;6.56;75.56;99472.69;24543;1332;3025863;-65
2022/12/25 07:44:18;;;;;;;34.20;14.90;;;;;;;6.69;74.41;99479.03;24455;1332;3027326;-63
2022/12/25 07:46:46;;;;;;;42.40;16.00;;;;;;;6.59;74.61;99482.11;24512;1318;3028921;-64
2022/12/25 07:49:15;;;;;;;40.70;17.40;;;;;;;6.43;75.08;99482.11;24464;1333;3052496;-65
2022/12/25 07:51:45;;;;;;;41.00;16.60;;;;;;;6.27;75.39;99477.55;24494;1325;3028719;-65
2022/12/25 07:54:14;;;;;;;37.90;16.50;;;;;;;6.15;75.81;99475.63;24522;1332;3052162;-65
2022/12/25 07:56:43;;;;;;;40.90;17.50;;;;;;;6.03;76.36;99475.60;24491;1322;3026146;-64
2022/12/25 07:59:13;;;;;;;40.40;17.30;;;;;;;5.93;77.04;99481.73;24543;1332;3055695;-63
2022/12/25 08:01:42;;;;;;;38.30;16.40;;;;;;;5.88;77.19;99482.11;24529;1332;3028663;-63
2022/12/25 08:04:11;;;;;;;41.10;16.60;;;;;;;5.87;77.47;99484.58;24537;1332;3048861;-63
2022/12/25 08:06:40;;;;;;;41.00;17.30;;;;;;;5.80;77.80;99487.30;24520;1325;3028314;-65
2022/12/25 08:09:10;;;;;;;42.80;17.70;;;;;;;5.76;78.18;99486.08;24497;1332;3068871;-66
2022/12/25 08:11:44;;;;;;;41.20;17.80;;;;;;;5.81;78.34;99482.02;24559;1333;3026052;-64
2022/12/25 08:14:13;;;;;;;41.20;19.30;;;;;;;5.80;78.23;99481.40;24530;1332;3056390;-64
2022/12/25 08:16:45;;;;;;;38.50;17.80;;;;;;;5.82;78.34;99482.52;24495;1332;3026578;-66
2022/12/25 08:19:14;;;;;;;31.30;13.10;;;;;;;5.80;78.68;99485.89;24538;1332;3025783;-63
2022/12/25 08:21:40;;;;;;;31.10;12.60;;;;;;;6.31;77.27;99484.68;23753;1333;4683330;-65
2022/12/25 08:24:10;;;;;;;35.30;14.80;;;;;;;6.94;75.12;99481.05;24472;1333;3068713;-64
2022/12/25 08:26:39;;;;;;;38.20;16.60;;;;;;;7.10;73.89;99481.57;24474;1332;3028121;-66
2022/12/25 08:29:08;;;;;;;50.00;18.80;;;;;;;6.97;73.89;99476.75;24522;1323;3025908;-63
2022/12/25 08:31:37;;;;;;;42.30;16.90;;;;;;;6.79;74.38;99479.31;24483;1325;3069118;-62
2022/12/25 08:34:06;;;;;;;42.50;18.80;;;;;;;6.71;75.04;99482.64;24514;1332;3028641;-63
2022/12/25 08:36:36;;;;;;;43.00;18.80;;;;;;;6.56;75.61;99480.52;24484;1333;3048595;-65
2022/12/25 08:39:05;;;;;;;42.50;19.00;;;;;;;6.37;76.35;99485.46;24480;1326;3026673;-62
2022/12/25 08:41:35;;;;;;;51.70;19.40;;;;;;;6.35;76.68;99489.76;24537;1332;3029142;-64
2022/12/25 08:44:04;;;;;;;44.60;19.00;;;;;;;6.22;77.12;99487.00;24477;1332;3049128;-63
2022/12/25 08:46:35;;;;;;;43.60;17.40;;;;;;;6.17;77.39;99491.20;24465;1333;3027924;-62
2022/12/25 08:49:04;;;;;;;49.70;18.60;;;;;;;6.13;77.61;99494.66;24511;1332;3028616;-63
2022/12/25 08:51:33;;;;;;;46.10;20.50;;;;;;;6.06;77.76;99494.45;24462;1324;3025717;-64
2022/12/25 08:54:02;;;;;;;48.80;19.70;;;;;;;6.04;78.11;99492.60;24510;1326;3068035;-65
2022/12/25 08:56:32;;;;;;;47.00;19.50;;;;;;;5.99;78.22;99497.14;24545;1333;3026598;-64
2022/12/25 08:59:01;;;;;;;50.70;20.30;;;;;;;5.97;78.24;99495.29;24496;1333;3029029;-64
2022/12/25 09:01:30;;;;;;;36.70;14.20;;;;;;;6.00;78.59;99491.88;24489;1332;3068482;-64
2022/12/25 09:03:59;;;;;;;38.30;15.00;;;;;;;6.54;77.07;99488.42;24491;1326;3028911;-63
2022/12/25 09:06:29;;;;;;;40.90;17.40;;;;;;;7.08;74.81;99484.29;24531;1333;3047765;-64
2022/12/25 09:08:58;;;;;;;47.10;18.70;;;;;;;7.15;74.20;99488.14;24508;1332;3028772;-65
2022/12/25 09:11:27;;;;;;;49.90;20.50;;;;;;;7.12;74.58;99479.04;24497;1336;3028789;-63
2022/12/25 09:13:56;;;;;;;53.00;22.30;;;;;;;7.00;74.51;99477.32;24519;1325;3028610;-62
2022/12/25 09:16:25;;;;;;;50.70;21.30;;;;;;;6.81;74.96;99475.02;24470;1324;3068051;-63
2022/12/25 09:18:55;;;;;;;56.60;22.60;;;;;;;6.73;75.73;99475.41;24524;1325;3028893;-65
2022/12/25 09:21:24;;;;;;;53.50;22.20;;;;;;;6.60;75.91;99475.10;24529;1331;3049237;-65
2022/12/25 09:23:53;;;;;;;59.80;22.80;;;;;;;6.50;76.53;99478.84;24445;1333;3028007;-64
2022/12/25 09:26:22;;;;;;;50.10;21.20;;;;;;;6.48;76.67;99470.73;24581;1333;3052294;-65
2022/12/25 09:28:51;;;;;;;58.80;22.50;;;;;;;6.40;77.21;99466.04;24503;1322;3028785;-65
2022/12/25 09:31:20;;;;;;;60.10;22.30;;;;;;;6.33;77.69;99467.21;24522;1332;3051564;-65
2022/12/25 09:33:50;;;;;;;60.70;22.70;;;;;;;6.28;77.88;99462.75;24583;1325;3025779;-64
2022/12/25 09:36:22;;;;;;;56.30;22.50;;;;;;;6.26;78.03;99467.02;24470;1333;3026063;-63
2022/12/25 09:38:51;;;;;;;57.80;23.10;;;;;;;6.25;78.22;99464.60;24505;1332;3026326;-63
2022/12/25 09:41:33;;;;;;;53.80;22.10;;;;;;;6.22;78.45;99463.15;24565;1339;3026712;-64
2022/12/25 09:44:08;;;;;;;41.80;15.10;;;;;;;6.17;78.51;99464.24;24546;1331;3056042;-63
2022/12/25 09:46:55;;;;;;;37.30;15.20;;;;;;;6.75;76.81;99465.36;24534;1332;3052066;-64
2022/12/25 09:49:39;;;;;;;45.80;18.50;;;;;;;7.29;74.72;99463.77;24430;1332;3053360;-64
2022/12/25 09:52:16;;;;;;;51.30;19.50;;;;;;;7.30;74.07;99466.54;24455;1333;3052077;-65
2022/12/25 09:54:47;;;;;;;61.80;22.10;;;;;;;7.23;74.64;99466.16;24512;1333;3052787;-63
2022/12/25 09:57:16;;;;;;;53.30;21.10;;;;;;;7.09;74.86;99469.96;24501;1326;3028527;-63
2022/12/25 09:59:46;;;;;;;52.30;18.60;;;;;;;6.97;75.58;99467.70;24449;1331;3051846;-64
2022/12/25 10:02:18;;;;;;;48.40;17.80;;;;;;;6.86;76.18;99469.95;24477;1326;3028673;-65
2022/12/25 10:05:22;;;;;;;47.40;17.20;;;;;;;6.69;76.70;99468.60;24472;1333;3052837;-64
2022/12/25 10:07:57;;;;;;;40.10;15.40;;;;;;;6.52;77.45;99470.20;24497;1325;3051374;-64
2022/12/25 10:10:50;;;;;;;47.30;16.50;;;;;;;6.47;77.72;99470.42;24529;1332;3054257;-64
2022/12/25 10:13:44;;;;;;;35.60;14.30;;;;;;;6.32;78.61;99475.44;24500;1333;3049831;-63
2022/12/25 10:16:23;;;;;;;44.00;15.90;;;;;;;6.23;78.87;99475.11;24409;1326;3069188;-65
2022/12/25 10:18:58;;;;;;;50.60;17.40;;;;;;;6.18;79.41;99476.54;24489;1332;3049607;-62
2022/12/25 10:21:27;;;;;;;39.90;15.10;;;;;;;6.17;79.58;99474.84;24490;1332;3056496;-64
2022/12/25 10:24:04;;;;;;;30.10;11.20;;;;;;;6.16;79.69;99474.54;24522;1325;3028572;-64
2022/12/25 10:26:34;;;;;;;25.70;10.50;;;;;;;6.66;78.31;99471.52;24521;1332;3050057;-64
2022/12/25 10:29:12;;;;;;;31.00;12.70;;;;;;;7.24;76.55;99470.63;24496;1325;3026351;-66
2022/12/25 10:31:44;;;;;;;42.10;15.00;;;;;;;7.36;75.56;99467.83;24454;1332;3068845;-63
2022/12/25 10:34:13;;;;;;;53.70;18.10;;;;;;;7.21;75.73;99461.21;24501;1331;3027164;-66
2022/12/25 10:36:43;;;;;;;48.90;17.80;;;;;;;7.06;76.36;99457.70;24532;1325;3028757;-65
2022/12/25 10:39:17;;;;;;;45.80;17.80;;;;;;;6.97;76.84;99456.73;24517;1332;3069623;-66
2022/12/25 10:42:07;;;;;;;46.70;18.00;;;;;;;6.90;77.37;99453.75;24585;1333;3049458;-63
2022/12/25 10:44:36;;;;;;;46.80;17.70;;;;;;;6.81;77.66;99450.14;24534;1331;3056587;-64
2022/12/25 10:47:05;;;;;;;43.30;15.50;;;;;;;6.87;77.75;99450.71;24464;1324;3028221;-64
2022/12/25 10:49:36;;;;;;;41.70;15.30;;;;;;;6.83;77.35;99454.08;24511;1331;3049839;-65
2022/12/25 10:52:22;;;;;;;44.30;15.80;;;;;;;6.70;77.52;99461.78;24506;1336;3026440;-66
2022/12/25 10:54:51;;;;;;;43.30;16.30;;;;;;;6.55;78.39;99462.77;24513;1332;3052869;-65
2022/12/25 10:57:22;;;;;;;38.80;14.80;;;;;;;6.47;79.19;99464.20;24498;1332;3028192;-64
2022/12/25 10:59:56;;;;;;;36.00;11.70;;;;;;;6.42;79.46;99463.17;24514;1337;3059949;-64
2022/12/25 11:02:33;;;;;;;34.30;11.70;;;;;;;6.97;78.39;99467.35;24491;1324;3052668;-63
2022/12/25 11:05:05;;;;;;;43.20;14.50;;;;;;;7.60;75.83;99468.23;24553;1331;3053440;-62
2022/12/25 11:07:49;;;;;;;38.50;15.70;;;;;;;7.68;74.75;99469.61;24465;1331;3051872;-63
2022/12/25 11:10:25;;;;;;;36.00;13.70;;;;;;;7.60;74.92;99471.88;24538;1325;3052405;-65
2022/12/25 11:12:54;;;;;;;41.10;15.50;;;;;;;7.42;75.23;99472.79;24559;1323;3048858;-67
2022/12/25 11:15:41;;;;;;;51.80;17.80;;;;;;;7.30;75.72;99482.19;24491;1339;3026500;-66
2022/12/25 11:18:27;;;;;;;49.10;17.60;;;;;;;7.11;76.42;99481.02;24499;1325;3050411;-63
2022/12/25 11:20:58;;;;;;;44.80;17.10;;;;;;;6.94;77.43;99481.20;24518;1333;3056161;-66
2022/12/25 11:23:29;;;;;;;54.00;17.40;;;;;;;6.85;77.83;99480.41;24550;1325;3026470;-63
2022/12/25 11:25:59;;;;;;;49.70;18.50;;;;;;;6.76;78.14;99479.79;24548;1331;3026394;-67
2022/12/25 11:28:31;;;;;;;41.20;16.70;;;;;;;6.68;78.66;99481.34;24491;1332;3028513;-69
2022/12/25 11:31:04;;;;;;;43.20;16.30;;;;;;;6.64;78.94;99481.35;24555;1325;3026546;-63
2022/12/25 11:33:35;;;;;;;45.10;16.10;;;;;;;6.63;79.17;99482.28;24444;1339;3026226;-63
2022/12/25 11:36:22;;;;;;;27.80;10.40;;;;;;;6.56;79.79;99483.60;24481;1332;3028513;-66
2022/12/25 11:38:52;;;;;;;34.90;13.10;;;;;;;7.20;78.13;99483.86;24455;1333;3050112;-63
2022/12/25 11:41:23;;;;;;;36.70;12.90;;;;;;;7.71;76.03;99486.37;24497;1333;3025738;-64
2022/12/25 11:43:54;;;;;;;41.90;15.00;;;;;;;7.81;75.42;99487.97;24537;1332;3027953;-63
2022/12/25 11:46:32;;;;;;;40.60;14.90;;;;;;;7.64;75.55;99488.61;24498;1339;3030575;-64
2022/12/25 11:49:04;;;;;;;34.50;14.50;;;;;;;7.57;76.30;99484.95;24441;1332;3051655;-63
2022/12/25 11:51:36;;;;;;;37.90;14.30;;;;;;;7.53;76.79;99480.06;24496;1332;3028421;-63
2022/12/25 11:54:30;;;;;;;38.20;15.30;;;;;;;7.46;76.46;99479.01;24515;1336;3026051;-65
2022/12/25 11:57:01;;;;;;;41.00;15.00;;;;;;;7.26;76.83;99483.25;24489;1340;3068769;-63
2022/12/25 11:59:45;;;;;;;49.20;17.50;;;;;;;7.13;77.45;99482.83;24541;1339;3025795;-63
2022/12/25 12:02:19;;;;;;;45.90;16.70;;;;;;;7.04;77.83;99485.30;24508;1326;3056966;-62
2022/12/25 12:04:51;;;;;;;47.30;16.90;;;;;;;6.95;78.14;99486.60;24495;1332;3052996;-63
2022/12/25 12:07:26;;;;;;;49.60;18.40;;;;;;;6.93;78.27;99484.23;24465;1334;3026664;-62
2022/12/25 12:10:14;;;;;;;53.20;18.10;;;;;;;6.79;78.38;99487.11;24449;1333;3050936;-65
2022/12/25 12:12:55;;;;;;;46.00;17.00;;;;;;;6.72;78.89;99490.74;24489;1332;3053119;-63
2022/12/25 12:15:34;;;;;;;33.30;12.20;;;;;;;6.74;78.96;99494.83;24513;1328;3050462;-63
2022/12/25 12:18:07;;;;;;;32.50;12.30;;;;;;;7.40;77.06;99495.66;24484;1321;3069445;-64
2022/12/25 12:20:36;;;;;;;;;;;;;;;7.97;74.65;99500.09;24536;1340;3050283;-65
2022/12/25 12:23:12;;;;;;;41.20;14.40;;;;;;;7.94;74.10;99506.17;24454;1328;3028893;-63
2022/12/25 12:25:41;;;;;;;40.60;15.50;;;;;;;7.76;74.60;99503.36;24435;1326;3068402;-63
2022/12/25 12:28:20;;;;;;;39.10;15.50;;;;;;;7.65;75.26;99501.28;24464;1337;3027742;-67
2022/12/25 12:30:58;;;;;;;47.80;15.70;;;;;;;7.55;75.54;99507.34;24459;1333;3057246;-66
2022/12/25 12:33:56;;;;;;;49.80;17.10;;;;;;;7.31;75.83;99508.44;24518;1332;3052962;-62
2022/12/25 12:36:26;;;;;;;50.20;17.20;;;;;;;7.16;76.63;99508.46;24503;1331;3053091;-63
2022/12/25 12:38:55;;;;;;;48.50;16.60;;;;;;;7.06;77.19;99506.83;24524;1325;3025884;-64
2022/12/25 12:41:39;;;;;;;43.30;16.10;;;;;;;7.03;77.33;99502.77;24511;1332;3053416;-64
2022/12/25 12:44:09;;;;;;;39.10;14.00;;;;;;;6.97;76.87;99503.58;24543;1333;3053229;-66
2022/12/25 12:46:48;;;;;;;40.10;13.40;;;;;;;6.91;77.21;99504.56;24478;1331;3028203;-65
2022/12/25 12:49:21;;;;;;;36.90;13.40;;;;;;;6.81;77.60;99507.27;24483;1337;3052787;-66
2022/12/25 12:52:19;;;;;;;42.00;14.50;;;;;;;6.72;78.18;99506.58;24487;1339;3028377;-63
2022/12/25 12:54:56;;;;;;;45.50;14.70;;;;;;;6.55;78.78;99514.67;24494;1325;3069100;-63
2022/12/25 12:57:28;;;;;;;25.60;9.10;;;;;;;6.44;79.62;99511.98;24457;1331;3050246;-63
2022/12/25 12:59:57;;;;;;;24.70;9.50;;;;;;;7.09;78.35;99513.64;24569;1321;3026567;-63
2022/12/25 13:03:03;;;;;;;30.30;11.90;;;;;;;7.77;76.16;99515.87;24498;1337;3024878;-66
2022/12/25 13:06:10;;;;;;;31.80;12.70;;;;;;;7.83;74.50;99523.80;24516;1331;3055309;-65
2022/12/25 13:08:49;;;;;;;32.20;12.20;;;;;;;7.57;75.11;99526.77;24433;1329;3051696;-64
2022/12/25 13:11:26;;;;;;;32.70;13.00;;;;;;;7.49;75.82;99529.56;24465;1333;3053181;-65
2022/12/25 13:13:57;;;;;;;32.90;13.60;;;;;;;7.36;75.95;99524.64;24453;1336;3048835;-64
2022/12/25 13:16:30;;;;;;;36.10;14.30;;;;;;;7.18;75.74;99532.41;24508;1325;3025842;-65